• Join FlightAware (Why Join?)
  • Login
  • US Flag 
10:32AM EDT


 

Airport Tracker/Info


-or-


 

Live Flight TrackerFlight Track Log ✈ DAL6116 ✈ 02-May-2013 ✈ KJFK - KRIC

Flight Track Log - Related Links

Times and Time Zones

All times are in EDT time to prevent confusion due to time zone crossing. See the DAL6116 flight status page for this flight to view local times or setup timezone preferences in your user account.

Time Position Orientation Groundspeed Altitude Reporting Facility
EDT Latitude Longitude Course Direction KTS MPH feet Rate Location/Type
03:37PM 40.6050 -73.7614 159° South 187 215 2,100  Level New York Center
03:38PM 40.5833 -73.6833 110° East 230 265 4,500 960 Climbing New York TRACON
03:39PM 40.4610 -73.6110 143° Southeast  Level FlightAware Approximate
03:40PM 40.4046 -73.5546 143° Southeast  Level FlightAware Approximate
03:40PM 40.5064 -73.5361 124° Southeast 239 275 5,000  Level New York Center
03:41PM 40.3448 -73.5114 143° Southeast  Level FlightAware Approximate
03:41PM 40.4728 -73.4583 120° Southeast 239 275 6,000  Level New York Center
03:42PM 40.2982 -73.4491 159° South  Level FlightAware Approximate
03:42PM 40.4219 -73.4072 143° Southeast 239 275 8,600  Level New York Center
03:43PM 40.3428 -73.4017 177° South 248 285 10,400 1,680 Climbing New York Center
03:44PM 40.2531 -73.4061 182° South 303 349 12,000 1,200 Climbing New York Center
03:46PM 40.0872 -73.5253 209° Southwest 364 419 13,900 1,020 Climbing Washington Center
03:47PM 39.9906 -73.5958 209° Southwest 388 447 14,900 960 Climbing Washington Center
03:48PM 39.8897 -73.6717 210° Southwest 406 467 15,900 960 Climbing Washington Center
03:49PM 39.7867 -73.7472 209° Southwest 419 482 16,900 960 Climbing Washington Center
03:50PM 39.6858 -73.8200 209° Southwest 419 482 17,900 780 Climbing Washington Center
03:51PM 39.5828 -73.8953 209° Southwest 419 482 18,500 780 Climbing Washington Center
03:52PM 39.4753 -73.9731 209° Southwest 424 488 19,500 1,020 Climbing Washington Center
03:53PM 39.3744 -74.0586 213° Southwest 430 495 20,600 1,020 Climbing Washington Center
03:54PM 39.2819 -74.1597 220° Southwest 442 509 21,600 960 Climbing Washington Center
03:55PM 39.1872 -74.2633 220° Southwest 447 514 22,600 960 Climbing Washington Center
03:56PM 39.0903 -74.3667 220° Southwest 452 520 23,600 660 Climbing Washington Center
03:57PM 39.0058 -74.4589 220° Southwest 452 520 24,000 180 Climbing Washington Center
03:58PM 38.9089 -74.5672 221° Southwest 458 527 24,000  Level Washington Center
03:59PM 38.8075 -74.6753 220° Southwest 469 540 24,000  Level Washington Center
04:00PM 38.7061 -74.7831 220° Southwest 474 545 24,000  Level Washington Center
04:01PM 38.6067 -74.8903 220° Southwest 474 545 24,000  Level Washington Center
04:02PM 38.5114 -74.9894 219° Southwest 469 540 24,000 -300 Level Washington Center
04:03PM 38.4097 -75.0989 220° Southwest 464 534 23,400 -1,020 Descending Washington Center
04:04PM 38.3142 -75.1947 218° Southwest 464 534 22,000 -1,440 Descending Washington Center
04:05PM 38.2061 -75.3142 221° Southwest 469 540 20,700 -1,020 Descending Washington Center
04:06PM 38.1125 -75.4150 220° Southwest 463 533 20,000 -360 Descending Washington Center
04:07PM 38.0167 -75.5022 216° Southwest 449 517 20,000 -360 Level Washington Center
04:08PM 37.9144 -75.5786 211° Southwest 435 501 19,300 -1,140 Descending Washington Center
04:09PM 37.8122 -75.6550 211° Southwest 429 494 17,800 -1,380 Descending Washington Center
04:09PM 37.7561 -75.6942 209° Southwest 421 484 17,300 -1,140 Descending Washington Center
04:10PM 37.7122 -75.7308 213° Southwest 424 488 16,700 -1,140 Descending Washington Center
04:10PM 37.6578 -75.7675 208° Southwest 413 475 16,200 -720 Descending Washington Center
04:11PM 37.6225 -75.7936 210° Southwest 419 482 16,000 -240 Descending Washington Center
04:11PM 37.5639 -75.8408 213° Southwest 394 453 16,000  Level Washington Center
04:12PM 37.5306 -75.8694 214° Southwest 413 475 16,000 -600 Level Washington Center
04:12PM 37.4844 -75.9425 232° Southwest 401 461 15,400 -1,140 Descending Washington Center
04:13PM 37.4675 -75.9817 241° Southwest 393 452 14,900 -1,320 Descending Washington Center
04:13PM 37.4214 -76.0653 235° Southwest 404 465 14,100 -1,260 Descending Washington Center
04:14PM 37.4067 -76.0992 241° Southwest 400 460 13,700 -1,200 Descending Washington Center
04:14PM 37.3606 -76.1797 234° Southwest 398 458 12,900 -1,200 Descending Washington Center
04:15PM 37.3394 -76.2239 239° Southwest 405 466 12,500 -1,080 Descending Washington Center
04:16PM 37.3219 -76.3519 260° West 381 438 11,400 -1,020 Descending Washington Center
04:17PM 37.3231 -76.4825 271° West 371 427 10,500 -720 Descending Washington Center
04:18PM 37.3242 -76.6025 271° West 365 420 10,000 -780 Descending Washington Center
04:20PM 37.3333 -76.8000 273° West 289 333 8,400 -720 Descending Potomac TRACON
04:21PM 37.3667 -76.8833 297° West 277 319 8,000 -840 Descending Potomac TRACON
04:22PM 37.4000 -76.9667 297° West 273 314 6,800 -1,500 Descending Potomac TRACON
04:23PM 37.4333 -77.0500 297° West 273 314 5,000 -1,620 Descending Potomac TRACON
04:24PM 37.4833 -77.1167 313° West 251 289 3,600 -1,020 Descending Potomac TRACON
04:25PM 37.5333 -77.1667 322° Northwest 252 290 3,000 -720 Descending Potomac TRACON
04:26PM 37.6000 -77.2333 322° Northwest 247 284 2,200 -840 Descending Potomac TRACON